Time;durP1;ratioP1;P1;durP2;ratioP2;P2;SDS_P1;SDS_P2;PMS_P1;PMS_P2;Temp;Humidity;BMP_temperature;BMP_pressure;BME280_temperature;BME280_humidity;BME280_pressure;Samples;Min_cycle;Max_cycle;Signal;HPM_P1;HPM_P2
2023/04/22 00:00:00;;;;;;;5.85;2.33;;;13.60;99.90;;;;;;5072441;28;20036;-50
2023/04/22 00:02:28;;;;;;;5.68;2.78;;;13.60;99.90;;;;;;5072389;28;20502;-50
2023/04/22 00:04:56;;;;;;;3.22;2.38;;;;;;;;;;5072343;28;20028;-50
2023/04/22 00:07:22;;;;;;;3.78;1.92;;;;;;;;;;5072362;28;20036;-51
2023/04/22 00:09:48;;;;;;;2.00;1.77;;;13.50;99.90;;;;;;5037092;28;20063;-50
2023/04/22 00:12:14;;;;;;;4.75;2.20;;;13.40;99.90;;;;;;5074623;28;20083;-50
2023/04/22 00:14:40;;;;;;;4.00;2.00;;;;;;;;;;5075799;28;20032;-50
2023/04/22 00:17:06;;;;;;;2.83;1.77;;;13.30;99.90;;;;;;5075408;28;20032;-50
2023/04/22 00:19:32;;;;;;;3.20;2.17;;;13.30;99.90;;;;;;5075823;28;20109;-50
2023/04/22 00:21:58;;;;;;;2.85;2.22;;;13.60;99.90;;;;;;5024230;28;20072;-50
2023/04/22 00:24:24;;;;;;;2.58;1.60;;;13.40;99.90;;;;;;5075554;28;20533;-50
2023/04/22 00:26:50;;;;;;;1.77;1.63;;;13.40;99.90;;;;;;5076001;28;20071;-50
2023/04/22 00:29:15;;;;;;;5.65;2.05;;;13.50;99.90;;;;;;5075652;28;20060;-50
2023/04/22 00:31:41;;;;;;;2.58;1.88;;;13.60;99.90;;;;;;5075510;28;20369;-50
2023/04/22 00:34:07;;;;;;;2.92;1.60;;;13.60;99.90;;;;;;5075789;28;20062;-51
2023/04/22 00:36:33;;;;;;;3.15;2.42;;;13.60;99.90;;;;;;5075566;28;20037;-50
2023/04/22 00:38:58;;;;;;;2.22;1.83;;;13.50;99.90;;;;;;5075612;28;20578;-50
2023/04/22 00:41:25;;;;;;;3.63;2.08;;;13.60;99.90;;;;;;5024054;28;20111;-50
2023/04/22 00:43:52;;;;;;;4.53;2.10;;;13.50;99.90;;;;;;5075673;28;20051;-50
2023/04/22 00:46:19;;;;;;;3.40;1.98;;;13.50;99.90;;;;;;5075651;28;20028;-50
2023/04/22 00:48:45;;;;;;;2.35;1.70;;;13.50;99.90;;;;;;5075199;28;20040;-49
2023/04/22 00:51:11;;;;;;;4.43;2.22;;;13.30;99.90;;;;;;5075677;28;20044;-50
2023/04/22 00:53:37;;;;;;;4.00;2.60;;;13.30;99.90;;;;;;5074988;28;20035;-51
2023/04/22 00:56:03;;;;;;;4.80;2.03;;;13.40;99.90;;;;;;5075464;28;20128;-50
2023/04/22 00:58:29;;;;;;;4.93;2.10;;;13.40;99.90;;;;;;5075710;28;20051;-50
2023/04/22 01:00:55;;;;;;;5.80;2.72;;;13.40;99.90;;;;;;5074882;28;20032;-50
2023/04/22 01:03:22;;;;;;;5.07;2.92;;;13.40;99.90;;;;;;5075020;28;20032;-50
2023/04/22 01:05:48;;;;;;;5.63;2.78;;;13.30;99.90;;;;;;5075145;28;20367;-52
2023/04/22 01:08:14;;;;;;;5.38;3.13;;;13.20;99.90;;;;;;5039701;28;20040;-51
2023/04/22 01:10:41;;;;;;;3.55;2.47;;;13.10;99.90;;;;;;5074264;28;20158;-50
2023/04/22 01:13:07;;;;;;;3.90;2.28;;;13.10;99.90;;;;;;5023147;28;20036;-51
2023/04/22 01:15:33;;;;;;;3.33;2.65;;;13.20;99.90;;;;;;5075002;28;20420;-50
2023/04/22 01:18:00;;;;;;;5.32;3.20;;;13.30;99.90;;;;;;5075181;28;20433;-49
2023/04/22 01:20:30;;;;;;;6.18;2.78;;;13.30;99.90;;;;;;5056550;28;20384;-51
2023/04/22 01:22:57;;;;;;;3.88;3.00;;;13.40;99.90;;;;;;5038319;28;20040;-51
2023/04/22 01:25:26;;;;;;;1.83;1.45;;;13.30;99.90;;;;;;5012565;28;20038;-50
2023/04/22 01:27:52;;;;;;;2.63;1.88;;;13.30;99.90;;;;;;5012568;28;20030;-50
2023/04/22 01:30:18;;;;;;;3.30;2.08;;;13.30;99.90;;;;;;5012823;28;20059;-51
2023/04/22 01:32:45;;;;;;;3.35;1.88;;;13.40;99.90;;;;;;4996161;28;20497;-51
2023/04/22 01:35:11;;;;;;;2.15;1.80;;;13.40;99.90;;;;;;5012716;28;20125;-51
2023/04/22 01:37:37;;;;;;;2.53;1.67;;;13.40;99.90;;;;;;5012361;28;20092;-50
2023/04/22 01:40:04;;;;;;;2.17;1.70;;;13.50;99.90;;;;;;4996027;28;20081;-50
2023/04/22 01:42:30;;;;;;;4.03;2.20;;;13.50;99.90;;;;;;4996112;28;20541;-50
2023/04/22 01:44:57;;;;;;;3.55;2.17;;;13.50;99.90;;;;;;5012598;28;20040;-51
2023/04/22 01:47:22;;;;;;;4.32;2.20;;;13.50;99.90;;;;;;5012380;28;20034;-50
2023/04/22 01:49:48;;;;;;;3.30;1.85;;;13.60;99.90;;;;;;5011991;28;20075;-51
2023/04/22 01:52:14;;;;;;;3.10;1.77;;;13.60;99.90;;;;;;5012367;28;20022;-51
2023/04/22 01:54:40;;;;;;;2.95;2.15;;;13.60;99.90;;;;;;5012120;28;20057;-50
2023/04/22 01:57:12;;;;;;;5.50;1.65;;;13.60;99.90;;;;;;5046448;28;20094;-50
2023/04/22 01:59:38;;;;;;;;;;;13.60;99.90;;;;;;5054731;28;20037;-50
2023/04/22 02:02:04;;;;;;;2.45;1.67;;;13.60;99.90;;;;;;5053775;28;19966;-51
2023/04/22 02:04:30;;;;;;;4.38;1.88;;;13.70;99.90;;;;;;5053759;28;20112;-50
2023/04/22 02:06:56;;;;;;;3.00;1.83;;;13.70;99.90;;;;;;5054161;28;20120;-50
2023/04/22 02:09:22;;;;;;;3.08;1.80;;;13.70;99.90;;;;;;5053894;28;20029;-51
2023/04/22 02:11:47;;;;;;;3.75;1.85;;;13.70;99.90;;;;;;5053774;28;20377;-50
2023/04/22 02:14:13;;;;;;;2.65;1.63;;;13.70;99.90;;;;;;5053770;28;20654;-51
2023/04/22 02:16:40;;;;;;;3.70;1.55;;;13.70;99.90;;;;;;5054313;28;20069;-50
2023/04/22 02:19:06;;;;;;;3.10;2.40;;;13.70;99.90;;;;;;5035036;28;20037;-50
2023/04/22 02:21:32;;;;;;;3.22;2.08;;;13.70;99.90;;;;;;5053650;28;20051;-50
2023/04/22 02:23:57;;;;;;;3.33;2.03;;;13.60;99.90;;;;;;5053956;28;20033;-51
2023/04/22 02:26:24;;;;;;;3.13;2.38;;;13.60;99.90;;;;;;5053718;28;20036;-51
2023/04/22 02:28:51;;;;;;;2.13;1.92;;;13.60;99.90;;;;;;5035218;28;20110;-50
2023/04/22 02:31:17;;;;;;;3.65;1.90;;;13.50;99.90;;;;;;5053726;28;20108;-51
2023/04/22 02:33:43;;;;;;;1.60;1.17;;;13.30;99.90;;;;;;5034746;28;20140;-51
2023/04/22 02:36:09;;;;;;;4.25;2.53;;;13.40;99.90;;;;;;5052344;28;20528;-51
2023/04/22 02:38:35;;;;;;;2.55;1.83;;;13.40;99.90;;;;;;5053308;28;20126;-51
2023/04/22 02:41:01;;;;;;;4.38;2.22;;;13.30;99.90;;;;;;5053406;28;20029;-50
2023/04/22 02:43:27;;;;;;;2.10;1.70;;;13.20;99.90;;;;;;5053312;28;20039;-50
2023/04/22 02:45:53;;;;;;;3.72;2.20;;;12.90;99.90;;;;;;5053648;28;20075;-50
2023/04/22 02:48:18;;;;;;;6.72;1.70;;;13.00;99.90;;;;;;5053630;28;20025;-51
2023/04/22 02:50:44;;;;;;;2.17;1.92;;;13.10;99.90;;;;;;5037899;28;20106;-50
2023/04/22 02:53:10;;;;;;;3.15;1.88;;;13.20;99.90;;;;;;5004861;28;20067;-51
2023/04/22 02:55:35;;;;;;;3.97;2.00;;;13.30;99.90;;;;;;5073469;28;20432;-51
2023/04/22 02:58:01;;;;;;;3.88;1.95;;;13.10;99.90;;;;;;5073093;28;20024;-51
2023/04/22 03:00:27;;;;;;;2.80;2.00;;;13.10;99.90;;;;;;5073044;28;20021;-50
2023/04/22 03:02:53;;;;;;;2.40;1.70;;;13.00;99.90;;;;;;5037824;28;20527;-51
2023/04/22 03:05:18;;;;;;;1.83;1.25;;;13.00;99.90;;;;;;5073112;28;20052;-51
2023/04/22 03:07:46;;;;;;;3.58;1.90;;;13.00;99.90;;;;;;5072771;28;20031;-50
2023/04/22 03:10:12;;;;;;;3.03;2.00;;;13.10;99.90;;;;;;5072849;28;20430;-50
2023/04/22 03:12:37;;;;;;;3.47;2.35;;;13.10;99.90;;;;;;5073273;28;20028;-51
2023/04/22 03:15:03;;;;;;;2.80;1.58;;;13.00;99.90;;;;;;5073486;28;20021;-51
2023/04/22 03:17:30;;;;;;;2.90;1.50;;;;;;;;;;5072857;28;20032;-50
2023/04/22 03:19:55;;;;;;;2.40;1.88;;;13.00;99.90;;;;;;5037858;28;20048;-51
2023/04/22 03:22:21;;;;;;;2.38;2.03;;;13.00;99.90;;;;;;5072889;28;20051;-51
2023/04/22 03:24:46;;;;;;;3.15;1.98;;;13.00;99.90;;;;;;5073111;28;20060;-51
2023/04/22 03:27:12;;;;;;;3.03;1.95;;;13.00;99.90;;;;;;5037596;28;20044;-50
2023/04/22 03:29:38;;;;;;;1.98;1.67;;;13.00;99.90;;;;;;5072971;28;20033;-51
2023/04/22 03:32:04;;;;;;;4.03;2.08;;;13.00;99.90;;;;;;5072655;28;20028;-51
2023/04/22 03:34:29;;;;;;;1.95;1.63;;;13.00;99.90;;;;;;5037478;28;20043;-50
2023/04/22 03:36:55;;;;;;;2.25;1.73;;;12.90;99.90;;;;;;5072947;28;20025;-50
2023/04/22 03:39:21;;;;;;;1.40;1.30;;;12.80;99.90;;;;;;5030456;28;20037;-50
2023/04/22 03:41:47;;;;;;;3.75;2.08;;;12.80;99.90;;;;;;4997776;28;20034;-50
2023/04/22 03:44:12;;;;;;;5.30;2.33;;;12.90;99.90;;;;;;5030415;28;20073;-50
2023/04/22 03:46:38;;;;;;;3.38;2.20;;;12.80;99.90;;;;;;4966243;28;20037;-50
2023/04/22 03:49:04;;;;;;;3.75;2.35;;;12.90;99.90;;;;;;5001187;28;20041;-50
2023/04/22 03:51:29;;;;;;;6.68;1.98;;;12.90;99.90;;;;;;5034332;28;20041;-51
2023/04/22 03:53:55;;;;;;;4.50;1.90;;;12.90;99.90;;;;;;5034009;28;20037;-50
2023/04/22 03:56:21;;;;;;;2.85;2.17;;;12.90;99.90;;;;;;5034428;28;20029;-50
2023/04/22 03:58:46;;;;;;;2.80;1.85;;;12.90;99.90;;;;;;5034166;28;20029;-50
2023/04/22 04:01:12;;;;;;;2.47;1.88;;;12.80;99.90;;;;;;5001395;28;20044;-50
2023/04/22 04:03:38;;;;;;;3.63;1.98;;;12.80;99.90;;;;;;4968392;28;20410;-51
2023/04/22 04:06:04;;;;;;;3.28;1.90;;;12.90;99.90;;;;;;4968462;28;20051;-50
2023/04/22 04:08:29;;;;;;;3.63;2.30;;;12.90;99.90;;;;;;5033923;28;20477;-50
2023/04/22 04:10:55;;;;;;;3.05;1.92;;;12.80;99.90;;;;;;5027385;28;20063;-51
2023/04/22 04:13:21;;;;;;;2.03;1.58;;;12.90;99.90;;;;;;5056093;28;20499;-50
2023/04/22 04:15:47;;;;;;;2.35;1.75;;;12.90;99.90;;;;;;5037385;28;20040;-51
2023/04/22 04:18:12;;;;;;;2.13;1.65;;;12.90;99.90;;;;;;5056145;28;20083;-50
2023/04/22 04:20:38;;;;;;;5.50;2.85;;;12.80;99.90;;;;;;5055920;28;20029;-50
2023/04/22 04:23:04;;;;;;;3.63;1.77;;;12.90;99.90;;;;;;5000685;28;20052;-50
2023/04/22 04:25:36;;;;;;;6.90;2.25;;;12.80;99.90;;;;;;5033792;28;20037;-50
2023/04/22 04:28:08;;;;;;;3.47;2.03;;;12.90;99.90;;;;;;5033594;28;20045;-51
2023/04/22 04:30:35;;;;;;;3.85;2.28;;;12.90;99.90;;;;;;5033734;28;20527;-50
2023/04/22 04:33:05;;;;;;;2.40;1.75;;;13.00;99.90;;;;;;5032666;28;20056;-50
2023/04/22 04:35:33;;;;;;;2.38;1.92;;;12.90;99.90;;;;;;5002074;28;20073;-51
2023/04/22 04:38:00;;;;;;;3.67;1.80;;;13.00;99.90;;;;;;5033636;28;20052;-51
2023/04/22 04:40:28;;;;;;;2.83;1.50;;;13.00;99.90;;;;;;5033521;28;20033;-50
2023/04/22 04:42:54;;;;;;;2.30;1.73;;;12.90;99.90;;;;;;5033322;28;20437;-51
2023/04/22 04:45:21;;;;;;;3.55;2.17;;;13.00;99.90;;;;;;5033543;28;20465;-51
2023/04/22 04:47:49;;;;;;;3.97;2.42;;;13.00;99.90;;;;;;5033150;28;20141;-51
2023/04/22 04:50:15;;;;;;;2.25;1.90;;;13.10;99.90;;;;;;5033136;28;20050;-51
2023/04/22 04:52:41;;;;;;;3.83;2.13;;;13.10;99.90;;;;;;5033135;28;20076;-51
2023/04/22 04:55:07;;;;;;;4.25;1.67;;;13.20;99.90;;;;;;5022096;28;20028;-51
2023/04/22 04:57:33;;;;;;;1.92;1.75;;;13.10;99.90;;;;;;5023202;28;20037;-51
2023/04/22 05:00:00;;;;;;;2.67;2.15;;;13.00;99.90;;;;;;5075030;28;20028;-50
2023/04/22 05:02:26;;;;;;;2.35;1.73;;;13.10;99.90;;;;;;5040053;28;20033;-51
2023/04/22 05:04:51;;;;;;;1.77;1.42;;;13.30;99.90;;;;;;5074783;28;20028;-50
2023/04/22 05:07:17;;;;;;;2.55;1.92;;;13.30;99.90;;;;;;5075200;28;20027;-50
2023/04/22 05:09:43;;;;;;;4.20;2.38;;;13.50;99.90;;;;;;5074735;28;20028;-50
2023/04/22 05:12:09;;;;;;;3.05;1.80;;;13.50;99.90;;;;;;5039768;28;20090;-50
2023/04/22 05:14:34;;;;;;;2.33;1.58;;;13.50;99.90;;;;;;5074842;28;20024;-50
2023/04/22 05:17:00;;;;;;;4.60;2.05;;;13.60;99.90;;;;;;5052288;28;20480;-51
2023/04/22 05:19:26;;;;;;;8.55;2.28;;;13.80;99.90;;;;;;5075177;28;20031;-50
2023/04/22 05:21:52;;;;;;;1.92;1.50;;;13.80;99.90;;;;;;5039736;28;20032;-50
2023/04/22 05:24:18;;;;;;;6.45;1.85;;;13.90;99.90;;;;;;5074754;28;20120;-50
2023/04/22 05:26:43;;;;;;;2.60;1.60;;;14.00;99.90;;;;;;5074777;28;20024;-51
2023/04/22 05:29:09;;;;;;;2.35;1.73;;;14.10;99.90;;;;;;5074629;28;20027;-51
2023/04/22 05:31:35;;;;;;;3.42;1.70;;;14.20;99.90;;;;;;5074840;28;20024;-50
2023/04/22 05:34:01;;;;;;;2.50;1.40;;;14.40;99.90;;;;;;5038512;28;20072;-50
2023/04/22 05:36:26;;;;;;;2.03;1.80;;;14.40;99.90;;;;;;5073449;28;20113;-51
2023/04/22 05:38:52;;;;;;;3.38;1.42;;;14.30;99.90;;;;;;5074107;28;20033;-50
2023/04/22 05:41:18;;;;;;;2.08;1.50;;;14.40;99.90;;;;;;5005072;28;20048;-51
2023/04/22 05:43:44;;;;;;;4.57;1.95;;;14.40;99.90;;;;;;5054356;28;20087;-51
2023/04/22 05:46:09;;;;;;;2.85;1.83;;;14.40;99.90;;;;;;5059058;28;20024;-50
2023/04/22 05:48:35;;;;;;;3.63;2.00;;;14.40;99.90;;;;;;5063858;28;20036;-51
2023/04/22 05:51:01;;;;;;;3.70;2.45;;;14.40;99.90;;;;;;5062092;28;20055;-51
2023/04/22 05:53:26;;;;;;;6.40;3.15;;;14.40;99.90;;;;;;5037794;28;20543;-50
2023/04/22 05:55:53;;;;;;;5.20;2.83;;;14.40;99.90;;;;;;5053885;28;20029;-51
2023/04/22 05:58:18;;;;;;;11.43;2.53;;;14.40;99.90;;;;;;5017270;28;20065;-51
2023/04/22 06:00:45;;;;;;;3.78;1.65;;;14.50;99.90;;;;;;5022349;28;20037;-50
2023/04/22 06:03:10;;;;;;;4.07;1.83;;;14.50;99.90;;;;;;5026043;28;20064;-51
2023/04/22 06:05:36;;;;;;;3.63;2.65;;;14.60;99.90;;;;;;5020330;28;20029;-50
2023/04/22 06:08:02;;;;;;;5.53;2.70;;;14.70;99.90;;;;;;4988463;28;20037;-51
2023/04/22 06:10:28;;;;;;;3.88;2.55;;;14.80;99.90;;;;;;5015117;28;20029;-50
2023/04/22 06:12:53;;;;;;;2.95;1.60;;;15.00;99.90;;;;;;4982126;28;20046;-51
2023/04/22 06:15:20;;;;;;;3.63;1.95;;;15.00;99.90;;;;;;5031444;28;20072;-50
2023/04/22 06:17:47;;;;;;;2.15;1.60;;;15.10;99.90;;;;;;4998762;28;20041;-50
2023/04/22 06:20:13;;;;;;;3.13;2.20;;;15.10;99.90;;;;;;4981791;28;20049;-50
2023/04/22 06:22:38;;;;;;;3.55;1.85;;;15.10;99.90;;;;;;5026104;28;20095;-51
2023/04/22 06:25:05;;;;;;;5.68;1.95;;;15.10;99.90;;;;;;5016023;28;20088;-50
2023/04/22 06:27:30;;;;;;;3.25;1.90;;;15.20;99.90;;;;;;5011164;28;20041;-50
2023/04/22 06:29:56;;;;;;;1.20;1.10;;;15.30;99.90;;;;;;5052530;28;20373;-50
2023/04/22 06:32:22;;;;;;;3.33;1.75;;;15.20;99.90;;;;;;5073674;28;20027;-51
2023/04/22 06:34:48;;;;;;;1.17;1.08;;;15.40;99.90;;;;;;5051073;28;20041;-52
2023/04/22 06:37:13;;;;;;;2.08;1.52;;;15.40;99.90;;;;;;5067883;28;20464;-51
2023/04/22 06:39:39;;;;;;;1.27;1.20;;;15.30;99.90;;;;;;5068215;28;20448;-50
2023/04/22 06:42:06;;;;;;;4.65;2.38;;;15.30;99.90;;;;;;5057845;28;20450;-51
2023/04/22 06:44:32;;;;;;;0.73;0.73;;;15.50;99.90;;;;;;5058411;28;20036;-51
2023/04/22 06:46:57;;;;;;;5.13;2.00;;;15.30;99.90;;;;;;5060990;28;20036;-51
2023/04/22 06:49:23;;;;;;;3.22;2.13;;;15.50;99.90;;;;;;5061809;28;20472;-51
2023/04/22 06:51:49;;;;;;;1.50;1.33;;;;;;;;;;5072579;28;20036;-51
2023/04/22 06:54:15;;;;;;;3.72;2.47;;;15.70;99.90;;;;;;5072906;28;20078;-46
2023/04/22 06:56:41;;;;;;;3.78;2.17;;;;;;;;;;5066143;28;20021;-54
2023/04/22 06:59:07;;;;;;;2.65;1.98;;;15.60;99.90;;;;;;5066168;28;20112;-51
2023/04/22 07:01:33;;;;;;;3.95;2.13;;;15.70;99.90;;;;;;5072413;28;20107;-52
2023/04/22 07:03:58;;;;;;;4.65;2.50;;;15.80;99.90;;;;;;5020610;28;20045;-51
2023/04/22 07:06:24;;;;;;;3.88;2.10;;;15.80;99.90;;;;;;5053082;28;20036;-51
2023/04/22 07:08:50;;;;;;;2.53;2.05;;;;;;;;;;5023111;28;20037;-52
2023/04/22 07:11:16;;;;;;;2.53;2.08;;;16.10;99.90;;;;;;5064049;28;20020;-52
2023/04/22 07:13:42;;;;;;;2.90;1.90;;;16.20;99.90;;;;;;5073208;28;20082;-51
2023/04/22 07:16:07;;;;;;;1.55;1.42;;;16.20;99.90;;;;;;5037823;28;20036;-50
2023/04/22 07:18:34;;;;;;;4.13;2.25;;;16.20;99.90;;;;;;5072893;28;20032;-51
2023/04/22 07:21:00;;;;;;;3.53;2.40;;;16.40;99.90;;;;;;5038095;28;20086;-51
2023/04/22 07:23:26;;;;;;;4.13;2.17;;;16.60;99.90;;;;;;5077030;28;20381;-51
2023/04/22 07:25:52;;;;;;;3.72;2.10;;;16.60;99.90;;;;;;5077044;28;20034;-52
2023/04/22 07:28:18;;;;;;;3.20;2.13;;;16.90;99.90;;;;;;5076730;28;20476;-51
2023/04/22 07:30:44;;;;;;;3.05;1.90;;;17.10;99.90;;;;;;5076847;28;20052;-51
2023/04/22 07:33:11;;;;;;;5.70;2.40;;;17.20;99.90;;;;;;5076923;28;20040;-51
2023/04/22 07:35:36;;;;;;;6.40;2.40;;;17.40;99.90;;;;;;5041542;28;20035;-51
2023/04/22 07:38:03;;;;;;;2.40;2.03;;;;;;;;;;5076869;28;20036;-51
2023/04/22 07:40:28;;;;;;;4.28;2.95;;;17.90;99.90;;;;;;5076849;28;20028;-52
2023/04/22 07:42:54;;;;;;;3.00;2.17;;;;;;;;;;5041507;28;20044;-50
2023/04/22 07:45:20;;;;;;;4.60;2.05;;;;;;;;;;5076485;28;20029;-51
2023/04/22 07:47:46;;;;;;;3.28;2.10;;;;;;;;;;5041429;28;20040;-51
2023/04/22 07:50:12;;;;;;;3.58;2.55;;;;;;;;;;5058648;28;20056;-52
2023/04/22 07:52:39;;;;;;;3.80;2.30;;;;;;;;;;5076259;28;20039;-52
2023/04/22 07:55:06;;;;;;;4.72;2.40;;;18.20;99.90;;;;;;5025091;28;20391;-50
2023/04/22 07:57:37;;;;;;;3.75;2.70;;;;;;;;;;5025197;28;20068;-51
2023/04/22 08:00:06;;;;;;;3.70;2.10;;;18.50;99.90;;;;;;5076253;28;20065;-51
2023/04/22 08:02:32;;;;;;;3.45;2.35;;;18.70;99.90;;;;;;5008970;28;20040;-51
2023/04/22 08:04:58;;;;;;;2.63;2.08;;;;;;;;;;5040860;28;20388;-51
2023/04/22 08:07:24;;;;;;;5.75;2.83;;;;;;;;;;5040678;28;20035;-51
2023/04/22 08:09:51;;;;;;;2.83;1.95;;;19.00;99.90;;;;;;5076200;28;20024;-51
2023/04/22 08:12:17;;;;;;;7.38;3.15;;;19.10;99.90;;;;;;5076029;28;20029;-52
2023/04/22 08:14:42;;;;;;;3.72;2.25;;;19.10;99.90;;;;;;5076160;28;20025;-52
2023/04/22 08:17:08;;;;;;;1.65;1.55;;;19.20;99.90;;;;;;5024499;28;20036;-51
2023/04/22 08:19:34;;;;;;;2.50;2.03;;;19.00;99.90;;;;;;5075832;28;20138;-49
2023/04/22 08:22:00;;;;;;;3.40;2.35;;;19.20;99.90;;;;;;5076288;28;20028;-49
2023/04/22 08:24:26;;;;;;;3.60;2.15;;;19.30;99.90;;;;;;5075559;28;20119;-49
2023/04/22 08:26:52;;;;;;;2.15;1.48;;;;;;;;;;5075892;28;20024;-50
2023/04/22 08:29:18;;;;;;;4.32;2.65;;;19.40;99.90;;;;;;5075799;28;20035;-50
2023/04/22 08:31:43;;;;;;;3.70;2.33;;;19.80;99.90;;;;;;5040417;28;20033;-49
2023/04/22 08:34:09;;;;;;;2.70;2.00;;;20.10;99.90;;;;;;5075503;28;20024;-49
2023/04/22 08:36:35;;;;;;;3.13;1.65;;;20.10;99.90;;;;;;5039762;28;20032;-52
2023/04/22 08:39:00;;;;;;;2.30;1.70;;;20.10;99.90;;;;;;5023687;28;20432;-51
2023/04/22 08:41:27;;;;;;;3.33;2.08;;;;;;;;;;5075429;28;20066;-49
2023/04/22 08:43:53;;;;;;;4.30;2.13;;;;;;;;;;5074202;28;20028;-49
2023/04/22 08:46:19;;;;;;;2.05;1.73;;;21.20;99.90;;;;;;5040159;28;20044;-49
2023/04/22 08:48:46;;;;;;;2.97;1.90;;;;;;;;;;5023634;28;20036;-49
2023/04/22 08:51:12;;;;;;;5.28;2.22;;;;;;;;;;5075069;28;20063;-49
2023/04/22 08:53:38;;;;;;;3.50;2.05;;;;;;;;;;5075071;28;20024;-51
2023/04/22 08:56:04;;;;;;;2.05;1.80;;;21.90;99.90;;;;;;5040306;28;20040;-52
2023/04/22 08:58:31;;;;;;;2.35;1.73;;;;;;;;;;4974531;28;20037;-52
2023/04/22 09:00:57;;;;;;;2.65;1.65;;;21.80;99.90;;;;;;5075187;28;20032;-51
2023/04/22 09:03:22;;;;;;;4.88;1.80;;;21.80;99.90;;;;;;5075233;28;20056;-51
2023/04/22 09:05:51;;;;;;;2.42;1.70;;;;;;;;;;5075019;28;20461;-50
2023/04/22 09:08:18;;;;;;;3.63;1.80;;;22.20;98.90;;;;;;5074940;28;20179;-51
2023/04/22 09:10:44;;;;;;;3.55;1.88;;;22.50;99.10;;;;;;5074785;28;20047;-50
2023/04/22 09:16:33;;;;;;;2.13;1.73;;;22.10;99.90;;;;;;5075058;28;20035;-51
2023/04/22 09:18:59;;;;;;;2.03;1.60;;;;;;;;;;5074679;28;20474;-50
2023/04/22 09:21:30;;;;;;;3.45;2.15;;;;;;;;;;5074672;28;20064;-51
2023/04/22 09:23:58;;;;;;;3.27;1.60;;;;;;;;;;5074392;28;20376;-52
2023/04/22 09:26:25;;;;;;;4.38;1.88;;;23.00;96.30;;;;;;5074642;28;20095;-49
2023/04/22 09:28:53;;;;;;;5.43;2.30;;;23.10;97.40;;;;;;4974006;28;20127;-50
2023/04/22 09:31:21;;;;;;;3.08;1.48;;;23.30;96.50;;;;;;5074398;28;20097;-50
2023/04/22 09:33:48;;;;;;;1.73;1.40;;;23.10;96.20;;;;;;5074271;28;20035;-50
2023/04/22 09:36:14;;;;;;;2.20;1.45;;;22.60;95.30;;;;;;5074597;28;20476;-50
2023/04/22 09:38:49;;;;;;;2.65;1.98;;;22.50;95.50;;;;;;5056302;28;20075;-50
2023/04/22 09:41:16;;;;;;;3.03;2.00;;;;;;;;;;5055867;28;20067;-50
2023/04/22 09:43:42;;;;;;;3.88;1.67;;;23.20;96.90;;;;;;5038841;28;20063;-50
2023/04/22 09:46:09;;;;;;;3.30;1.63;;;23.10;94.90;;;;;;5074208;28;20036;-50
2023/04/22 09:48:41;;;;;;;6.93;1.85;;;23.40;95.80;;;;;;5074168;28;20092;-50
2023/04/22 09:51:18;;;;;;;1.08;0.98;;;23.70;95.60;;;;;;5074249;28;20045;-49
2023/04/22 09:53:44;;;;;;;1.65;1.50;;;23.60;95.10;;;;;;5073986;28;20455;-49
2023/04/22 09:56:10;;;;;;;3.58;1.48;;;;;;;;;;5055576;28;20064;-52
2023/04/22 09:58:39;;;;;;;1.90;1.50;;;;;;;;;;5074025;28;20039;-50
2023/04/22 10:01:05;;;;;;;1.63;1.48;;;23.90;92.70;;;;;;5073961;28;20032;-50
2023/04/22 10:03:31;;;;;;;2.40;1.52;;;23.80;92.00;;;;;;5073610;28;20036;-49
2023/04/22 10:05:58;;;;;;;2.55;1.48;;;23.30;91.10;;;;;;5054933;28;20035;-50
2023/04/22 10:08:23;;;;;;;3.63;1.50;;;23.30;90.20;;;;;;5021988;28;20070;-50
2023/04/22 10:10:49;;;;;;;2.00;1.38;;;23.60;90.90;;;;;;5074148;28;20109;-50
2023/04/22 10:13:15;;;;;;;2.88;1.60;;;;;;;;;;5073696;28;20029;-50
2023/04/22 10:15:55;;;;;;;2.22;1.90;;;24.20;88.20;;;;;;5038408;28;20040;-50
2023/04/22 10:18:24;;;;;;;3.33;1.58;;;24.10;88.50;;;;;;5073716;28;20106;-50
2023/04/22 10:20:52;;;;;;;2.35;1.40;;;;;;;;;;5073626;28;20031;-50
2023/04/22 10:23:19;;;;;;;2.72;1.77;;;;;;;;;;5073411;28;20047;-50
2023/04/22 10:25:53;;;;;;;2.20;1.75;;;25.20;89.90;;;;;;5073186;28;20060;-49
2023/04/22 10:28:21;;;;;;;2.72;2.22;;;24.80;88.10;;;;;;5073750;28;20033;-50
2023/04/22 10:30:47;;;;;;;3.10;2.00;;;24.60;88.50;;;;;;5038066;28;20041;-50
2023/04/22 10:33:30;;;;;;;1.73;1.40;;;24.80;88.70;;;;;;5073503;28;20115;-49
2023/04/22 10:36:13;;;;;;;2.63;1.50;;;24.60;86.80;;;;;;5073447;28;20446;-50
2023/04/22 10:39:00;;;;;;;2.05;1.55;;;24.90;87.30;;;;;;5073534;28;20446;-50
2023/04/22 10:41:34;;;;;;;2.50;1.73;;;24.80;85.80;;;;;;5073484;28;20024;-50
2023/04/22 10:44:07;;;;;;;2.38;1.38;;;25.40;86.70;;;;;;5073277;28;20038;-50
2023/04/22 10:46:33;;;;;;;2.47;1.55;;;25.30;85.90;;;;;;5073108;28;20074;-50
2023/04/22 10:49:06;;;;;;;5.72;1.58;;;26.10;84.80;;;;;;5037879;28;20086;-50
2023/04/22 10:51:46;;;;;;;2.10;1.40;;;26.40;80.10;;;;;;5073203;28;20028;-50
2023/04/22 10:54:27;;;;;;;1.65;1.30;;;26.50;82.50;;;;;;5073035;28;20024;-49
2023/04/22 10:57:23;;;;;;;1.83;1.55;;;25.70;82.80;;;;;;5071861;28;20133;-49
2023/04/22 10:59:51;;;;;;;3.63;1.70;;;25.60;82.60;;;;;;5062246;28;20036;-50
2023/04/22 11:02:18;;;;;;;2.45;1.33;;;25.70;81.40;;;;;;5063592;28;20037;-51
2023/04/22 11:04:44;;;;;;;1.40;1.17;;;25.80;77.80;;;;;;5056104;28;20029;-50
2023/04/22 11:07:21;;;;;;;1.38;1.20;;;25.80;82.40;;;;;;5059529;28;20042;-50
2023/04/22 11:09:50;;;;;;;3.42;1.25;;;26.10;80.90;;;;;;5062255;28;20106;-50
2023/04/22 11:12:34;;;;;;;1.70;1.33;;;26.10;79.50;;;;;;5069450;28;20391;-49
2023/04/22 11:15:05;;;;;;;1.55;1.30;;;25.80;79.90;;;;;;5072851;28;20032;-50
2023/04/22 11:17:31;;;;;;;2.53;1.60;;;25.80;80.80;;;;;;5072693;28;20041;-50
2023/04/22 11:19:57;;;;;;;4.63;2.80;;;26.10;82.80;;;;;;5072844;28;20052;-51
2023/04/22 11:22:23;;;;;;;3.40;1.50;;;26.00;80.30;;;;;;5037489;28;20037;-50
2023/04/22 11:24:59;;;;;;;2.22;1.42;;;26.20;79.20;;;;;;5072698;28;20500;-51
2023/04/22 11:27:26;;;;;;;2.05;1.20;;;;;;;;;;5037472;28;20039;-51
2023/04/22 11:30:06;;;;;;;3.38;1.77;;;;;;;;;;5071510;28;20058;-50
2023/04/22 11:32:33;;;;;;;1.70;1.45;;;27.00;86.60;;;;;;5032979;28;20029;-50
2023/04/22 11:35:02;;;;;;;2.78;1.38;;;;;;;;;;5068452;28;20410;-51
2023/04/22 11:37:29;;;;;;;2.40;1.40;;;;;;;;;;5072318;28;20029;-50
2023/04/22 11:40:00;;;;;;;1.40;1.30;;;;;;;;;;5029242;28;20037;-51
2023/04/22 11:42:26;;;;;;;2.80;1.63;;;;;;;;;;5060357;28;20032;-50
2023/04/22 11:44:52;;;;;;;1.85;1.25;;;;;;;;;;5066480;28;20048;-50
2023/04/22 11:47:19;;;;;;;1.40;1.30;;;;;;;;;;5011652;28;20032;-51
2023/04/22 11:49:58;;;;;;;2.65;1.63;;;;;;;;;;5064320;28;20061;-50
2023/04/22 11:52:25;;;;;;;4.63;1.50;;;;;;;;;;5057377;28;20048;-51
2023/04/22 11:54:51;;;;;;;2.38;1.60;;;26.80;74.80;;;;;;5037094;28;20361;-50
2023/04/22 11:57:17;;;;;;;2.53;1.42;;;26.60;75.60;;;;;;4971633;28;20036;-51
2023/04/22 11:59:43;;;;;;;6.00;1.35;;;26.40;76.70;;;;;;5016261;28;20110;-50
2023/04/22 12:02:09;;;;;;;2.00;1.48;;;26.10;78.10;;;;;;5019309;28;20036;-51
2023/04/22 12:04:39;;;;;;;3.45;1.73;;;25.70;78.20;;;;;;5071142;28;20044;-51
2023/04/22 12:07:05;;;;;;;4.80;1.95;;;25.30;83.40;;;;;;5071556;28;20051;-50
2023/04/22 12:09:32;;;;;;;1.80;1.40;;;25.30;83.10;;;;;;5074067;28;20048;-51
2023/04/22 12:11:58;;;;;;;2.90;2.22;;;25.30;82.70;;;;;;5047438;28;20126;-50
2023/04/22 12:14:33;;;;;;;2.45;1.40;;;25.30;84.90;;;;;;4998220;28;20070;-49
2023/04/22 12:17:08;;;;;;;2.05;1.70;;;25.30;84.80;;;;;;5067227;28;20031;-50
2023/04/22 12:19:33;;;;;;;3.70;1.73;;;25.40;83.60;;;;;;5055235;28;20044;-50
2023/04/22 12:21:59;;;;;;;2.65;1.80;;;25.00;79.60;;;;;;5002390;28;20028;-50
2023/04/22 12:24:29;;;;;;;2.17;1.63;;;24.80;80.70;;;;;;5024390;28;20036;-50
2023/04/22 12:26:55;;;;;;;4.53;1.85;;;24.50;78.00;;;;;;5029879;28;20032;-51
2023/04/22 12:29:32;;;;;;;1.42;1.13;;;;;;;;;;5063832;28;20021;-50
2023/04/22 12:31:58;;;;;;;1.35;1.25;;;;;;;;;;5063591;28;20036;-51
2023/04/22 12:34:24;;;;;;;2.25;1.55;;;;;;;;;;5064686;28;20017;-50
2023/04/22 12:36:50;;;;;;;3.47;2.00;;;24.50;99.90;;;;;;5029140;28;20124;-51
2023/04/22 12:39:16;;;;;;;2.45;2.00;;;24.20;88.40;;;;;;5030587;28;20210;-50
2023/04/22 12:41:42;;;;;;;2.03;1.63;;;24.10;98.50;;;;;;5073866;28;20044;-50
2023/04/22 12:44:07;;;;;;;1.98;1.70;;;24.30;85.00;;;;;;5022164;28;20428;-51
2023/04/22 12:46:34;;;;;;;4.03;1.83;;;;;;;;;;5073999;28;20035;-49
2023/04/22 12:49:00;;;;;;;1.88;1.30;;;25.00;91.60;;;;;;5071234;28;20032;-50
2023/04/22 12:51:26;;;;;;;1.92;1.70;;;25.10;93.80;;;;;;5067315;28;20392;-50
2023/04/22 12:53:52;;;;;;;2.50;1.50;;;25.10;92.80;;;;;;5073626;28;20391;-52
2023/04/22 12:56:18;;;;;;;2.92;1.80;;;;;;;;;;5021984;28;20115;-50
2023/04/22 12:58:44;;;;;;;2.75;1.70;;;25.20;84.00;;;;;;5036443;28;20041;-48
2023/04/22 13:01:09;;;;;;;1.70;1.50;;;25.10;83.70;;;;;;5074461;28;20027;-49
2023/04/22 13:03:35;;;;;;;2.25;1.63;;;24.80;79.60;;;;;;5072282;28;20037;-49